This is the latest recevied weather packets stored in our database for station/object W9WRP. If no packets are shown the sender has not sent any weather packets the latest 10 day(s).
| Time | Temp. | Humidity | Pressure | Rain* | Wind** | Luminosity | Snow |
|---|---|---|---|---|---|---|---|
| 1788102707 | 31.11° C | 44% | 1016.7 hPa | 0 mm | - | 84 W/m² | - |
| 1788102402 | 30.56° C | 47% | 1016.8 hPa | 0 mm | - | 91 W/m² | - |
| 1788102097 | 31.11° C | 47% | 1016.9 hPa | 0 mm | - | 87 W/m² | - |
| 1788101796 | 30.56° C | 47% | 1016.9 hPa | 0 mm | - | 73 W/m² | - |
| 1788101491 | 30° C | 49% | 1017.1 hPa | 0 mm | - | 66 W/m² | - |
| 1788101187 | 30° C | 50% | 1017 hPa | 0 mm | - | 65 W/m² | - |
| 1788100883 | 29.44° C | 52% | 1017 hPa | 0 mm | - | 74 W/m² | - |
| 1788100579 | 29.44° C | 53% | 1017.1 hPa | 0 mm | - | 79 W/m² | - |
| 1788100276 | 29.44° C | 53% | 1016.9 hPa | 0 mm | - | 66 W/m² | - |
| 1788099972 | 29.44° C | 53% | 1016.8 hPa | 0 mm | - | 58 W/m² | - |
| 1788099666 | 29.44° C | 54% | 1016.7 hPa | 0 mm | - | 68 W/m² | - |
| 1788099361 | 28.89° C | 56% | 1016.9 hPa | 0 mm | - | 66 W/m² | - |
| 1788099056 | 28.89° C | 57% | 1016.5 hPa | 0 mm | - | 58 W/m² | - |
| 1788098751 | 28.89° C | 57% | 1016.6 hPa | 0 mm | - | 41 W/m² | - |
| 1788098447 | 28.89° C | 57% | 1016.5 hPa | 0 mm | - | 52 W/m² | - |
| 1788098142 | 28.33° C | 58% | 1016.5 hPa | 0 mm | - | 41 W/m² | - |
| 1788097837 | 27.78° C | 60% | 1016.3 hPa | 0 mm | - | 36 W/m² | - |
| 1788097533 | 27.78° C | 61% | 1016.1 hPa | 0 mm | - | 31 W/m² | - |
| 1788097228 | 27.78° C | 63% | 1016.3 hPa | 0 mm | - | 23 W/m² | - |
| 1788096923 | 27.78° C | 62% | 1016.2 hPa | 0 mm | - | 17 W/m² | - |
| 1788096618 | 27.78° C | 60% | 1016.2 hPa | 0 mm | - | 14 W/m² | - |
| 1788096315 | 27.22° C | 61% | 1016 hPa | 0 mm | - | 11 W/m² | - |
| 1788096015 | 27.22° C | 63% | 1015.9 hPa | 0 mm | - | 8 W/m² | - |
| 1788095714 | 27.22° C | 62% | 1016 hPa | 0 mm | - | 6 W/m² | - |
| 1788095409 | 27.78° C | 62% | 1015.7 hPa | 0 mm | - | 4 W/m² | - |
* Rain latest hour (hover to see other rain measurements)
** Current wind speed in m/s (hover to see current wind gust speed)